sensor_id;sensor_type;location;lat;lon;timestamp;temperature;humidity
20929;DHT22;21895;47.072;15.132;2023-09-18T00:00:30;16.20;99.90
20929;DHT22;21895;47.072;15.132;2023-09-18T00:02:58;16.00;99.90
20929;DHT22;21895;47.072;15.132;2023-09-18T00:05:28;15.70;99.90
20929;DHT22;21895;47.072;15.132;2023-09-18T00:07:55;15.50;99.90
20929;DHT22;21895;47.072;15.132;2023-09-18T00:10:22;15.50;99.90
20929;DHT22;21895;47.072;15.132;2023-09-18T00:12:48;15.40;99.90
20929;DHT22;21895;47.072;15.132;2023-09-18T00:15:15;15.50;99.90
20929;DHT22;21895;47.072;15.132;2023-09-18T00:17:42;15.80;99.90
20929;DHT22;21895;47.072;15.132;2023-09-18T00:20:08;15.90;99.90
20929;DHT22;21895;47.072;15.132;2023-09-18T00:22:35;15.90;99.90
20929;DHT22;21895;47.072;15.132;2023-09-18T00:25:02;15.90;99.90
20929;DHT22;21895;47.072;15.132;2023-09-18T00:27:29;15.80;99.90
20929;DHT22;21895;47.072;15.132;2023-09-18T00:29:56;15.60;99.90
20929;DHT22;21895;47.072;15.132;2023-09-18T00:32:22;15.30;99.90
20929;DHT22;21895;47.072;15.132;2023-09-18T00:34:49;15.10;99.90
20929;DHT22;21895;47.072;15.132;2023-09-18T00:37:15;15.10;99.90
20929;DHT22;21895;47.072;15.132;2023-09-18T00:39:42;15.10;99.90
20929;DHT22;21895;47.072;15.132;2023-09-18T00:42:10;15.10;99.90
20929;DHT22;21895;47.072;15.132;2023-09-18T00:44:42;15.10;99.90
20929;DHT22;21895;47.072;15.132;2023-09-18T00:47:09;15.00;99.90
20929;DHT22;21895;47.072;15.132;2023-09-18T00:49:38;14.90;99.90
20929;DHT22;21895;47.072;15.132;2023-09-18T00:52:08;14.90;99.90
20929;DHT22;21895;47.072;15.132;2023-09-18T00:54:37;14.90;99.90
20929;DHT22;21895;47.072;15.132;2023-09-18T00:57:06;15.00;99.90
20929;DHT22;21895;47.072;15.132;2023-09-18T00:59:35;15.00;99.90
20929;DHT22;21895;47.072;15.132;2023-09-18T01:02:02;15.00;99.90
20929;DHT22;21895;47.072;15.132;2023-09-18T01:04:30;14.90;99.90
20929;DHT22;21895;47.072;15.132;2023-09-18T01:07:02;15.00;99.90
20929;DHT22;21895;47.072;15.132;2023-09-18T01:09:32;15.00;99.90
20929;DHT22;21895;47.072;15.132;2023-09-18T01:12:23;14.90;99.90
20929;DHT22;21895;47.072;15.132;2023-09-18T01:15:12;14.80;99.90
20929;DHT22;21895;47.072;15.132;2023-09-18T01:17:45;14.80;99.90
20929;DHT22;21895;47.072;15.132;2023-09-18T01:20:12;14.70;99.90
20929;DHT22;21895;47.072;15.132;2023-09-18T01:22:39;14.70;99.90
20929;DHT22;21895;47.072;15.132;2023-09-18T01:25:06;15.00;99.90
20929;DHT22;21895;47.072;15.132;2023-09-18T01:27:33;15.30;99.90
20929;DHT22;21895;47.072;15.132;2023-09-18T01:30:00;15.40;99.90
20929;DHT22;21895;47.072;15.132;2023-09-18T01:32:30;15.20;99.90
20929;DHT22;21895;47.072;15.132;2023-09-18T01:35:01;15.10;99.90
20929;DHT22;21895;47.072;15.132;2023-09-18T01:37:31;15.10;99.90
20929;DHT22;21895;47.072;15.132;2023-09-18T01:40:02;15.20;99.90
20929;DHT22;21895;47.072;15.132;2023-09-18T01:42:33;15.20;99.90
20929;DHT22;21895;47.072;15.132;2023-09-18T01:45:01;15.30;99.90
20929;DHT22;21895;47.072;15.132;2023-09-18T01:47:28;15.60;99.90
20929;DHT22;21895;47.072;15.132;2023-09-18T01:49:54;15.70;99.90
20929;DHT22;21895;47.072;15.132;2023-09-18T01:52:21;15.70;99.90
20929;DHT22;21895;47.072;15.132;2023-09-18T01:54:48;15.70;99.90
20929;DHT22;21895;47.072;15.132;2023-09-18T01:57:15;15.60;99.90
20929;DHT22;21895;47.072;15.132;2023-09-18T01:59:42;15.60;99.90
20929;DHT22;21895;47.072;15.132;2023-09-18T02:02:09;15.40;99.90
20929;DHT22;21895;47.072;15.132;2023-09-18T02:04:50;15.20;99.90
20929;DHT22;21895;47.072;15.132;2023-09-18T02:07:35;15.10;99.90
20929;DHT22;21895;47.072;15.132;2023-09-18T02:10:02;14.90;99.90
20929;DHT22;21895;47.072;15.132;2023-09-18T02:12:29;14.80;99.90
20929;DHT22;21895;47.072;15.132;2023-09-18T02:14:55;14.70;99.90
20929;DHT22;21895;47.072;15.132;2023-09-18T02:17:24;14.70;99.90
20929;DHT22;21895;47.072;15.132;2023-09-18T02:19:51;14.80;99.90
20929;DHT22;21895;47.072;15.132;2023-09-18T02:22:17;14.70;99.90
20929;DHT22;21895;47.072;15.132;2023-09-18T02:24:44;14.60;99.90
20929;DHT22;21895;47.072;15.132;2023-09-18T02:27:10;14.70;99.90
20929;DHT22;21895;47.072;15.132;2023-09-18T02:29:37;14.90;99.90
20929;DHT22;21895;47.072;15.132;2023-09-18T02:32:04;14.90;99.90
20929;DHT22;21895;47.072;15.132;2023-09-18T02:34:31;14.90;99.90
20929;DHT22;21895;47.072;15.132;2023-09-18T02:36:58;14.80;99.90
20929;DHT22;21895;47.072;15.132;2023-09-18T02:39:24;14.80;99.90
20929;DHT22;21895;47.072;15.132;2023-09-18T02:41:51;14.80;99.90
20929;DHT22;21895;47.072;15.132;2023-09-18T02:44:17;14.70;99.90
20929;DHT22;21895;47.072;15.132;2023-09-18T02:46:44;14.60;99.90
20929;DHT22;21895;47.072;15.132;2023-09-18T02:49:10;14.50;99.90
20929;DHT22;21895;47.072;15.132;2023-09-18T02:51:37;14.50;99.90
20929;DHT22;21895;47.072;15.132;2023-09-18T02:54:04;14.50;99.90
20929;DHT22;21895;47.072;15.132;2023-09-18T02:56:31;14.50;99.90
20929;DHT22;21895;47.072;15.132;2023-09-18T02:58:57;14.50;99.90
20929;DHT22;21895;47.072;15.132;2023-09-18T03:01:24;14.40;99.90
20929;DHT22;21895;47.072;15.132;2023-09-18T03:03:50;14.40;99.90
20929;DHT22;21895;47.072;15.132;2023-09-18T03:06:17;14.40;99.90
20929;DHT22;21895;47.072;15.132;2023-09-18T03:08:43;14.30;99.90
20929;DHT22;21895;47.072;15.132;2023-09-18T03:11:14;14.30;99.90
20929;DHT22;21895;47.072;15.132;2023-09-18T03:13:45;14.20;99.90
20929;DHT22;21895;47.072;15.132;2023-09-18T03:16:12;14.20;99.90
20929;DHT22;21895;47.072;15.132;2023-09-18T03:18:39;14.20;99.90
20929;DHT22;21895;47.072;15.132;2023-09-18T03:21:06;14.10;99.90
20929;DHT22;21895;47.072;15.132;2023-09-18T03:23:32;14.10;99.90
20929;DHT22;21895;47.072;15.132;2023-09-18T03:25:59;14.10;99.90
20929;DHT22;21895;47.072;15.132;2023-09-18T03:28:26;14.20;99.90
20929;DHT22;21895;47.072;15.132;2023-09-18T03:30:52;14.20;99.90
20929;DHT22;21895;47.072;15.132;2023-09-18T03:33:19;14.10;99.90
20929;DHT22;21895;47.072;15.132;2023-09-18T03:35:50;14.00;99.90
20929;DHT22;21895;47.072;15.132;2023-09-18T03:38:20;14.00;99.90
20929;DHT22;21895;47.072;15.132;2023-09-18T03:40:47;14.00;99.90
20929;DHT22;21895;47.072;15.132;2023-09-18T03:43:13;13.90;99.90
20929;DHT22;21895;47.072;15.132;2023-09-18T03:45:40;13.80;99.90
20929;DHT22;21895;47.072;15.132;2023-09-18T03:48:09;13.90;99.90
20929;DHT22;21895;47.072;15.132;2023-09-18T03:50:36;13.80;99.90
20929;DHT22;21895;47.072;15.132;2023-09-18T03:53:03;13.80;99.90
20929;DHT22;21895;47.072;15.132;2023-09-18T03:55:30;13.80;99.90
20929;DHT22;21895;47.072;15.132;2023-09-18T03:57:57;13.80;99.90
20929;DHT22;21895;47.072;15.132;2023-09-18T04:00:24;13.80;99.90
20929;DHT22;21895;47.072;15.132;2023-09-18T04:02:51;13.70;99.90
20929;DHT22;21895;47.072;15.132;2023-09-18T04:05:18;13.60;99.90
20929;DHT22;21895;47.072;15.132;2023-09-18T04:07:44;13.60;99.90
20929;DHT22;21895;47.072;15.132;2023-09-18T04:10:13;13.60;99.90
20929;DHT22;21895;47.072;15.132;2023-09-18T04:12:45;13.50;99.90
20929;DHT22;21895;47.072;15.132;2023-09-18T04:15:15;13.50;99.90
20929;DHT22;21895;47.072;15.132;2023-09-18T04:17:43;13.50;99.90
20929;DHT22;21895;47.072;15.132;2023-09-18T04:20:10;13.50;99.90
20929;DHT22;21895;47.072;15.132;2023-09-18T04:22:47;13.50;99.90
20929;DHT22;21895;47.072;15.132;2023-09-18T04:25:18;13.50;99.90
20929;DHT22;21895;47.072;15.132;2023-09-18T04:27:48;13.60;99.90
20929;DHT22;21895;47.072;15.132;2023-09-18T04:30:17;13.70;99.90
20929;DHT22;21895;47.072;15.132;2023-09-18T04:32:45;14.00;99.90
20929;DHT22;21895;47.072;15.132;2023-09-18T04:35:12;13.90;99.90
20929;DHT22;21895;47.072;15.132;2023-09-18T04:37:39;13.80;99.90
20929;DHT22;21895;47.072;15.132;2023-09-18T04:40:06;13.80;99.90
20929;DHT22;21895;47.072;15.132;2023-09-18T04:42:38;13.70;99.90
20929;DHT22;21895;47.072;15.132;2023-09-18T04:45:06;13.80;99.90
20929;DHT22;21895;47.072;15.132;2023-09-18T04:47:33;13.80;99.90
20929;DHT22;21895;47.072;15.132;2023-09-18T04:50:00;13.70;99.90
20929;DHT22;21895;47.072;15.132;2023-09-18T04:52:26;13.60;99.90
20929;DHT22;21895;47.072;15.132;2023-09-18T04:54:53;13.60;99.90
20929;DHT22;21895;47.072;15.132;2023-09-18T04:57:20;13.70;99.90
20929;DHT22;21895;47.072;15.132;2023-09-18T04:59:46;13.80;99.90
20929;DHT22;21895;47.072;15.132;2023-09-18T05:02:21;13.90;99.90
20929;DHT22;21895;47.072;15.132;2023-09-18T05:04:47;14.00;99.90
20929;DHT22;21895;47.072;15.132;2023-09-18T05:07:14;14.10;99.90
20929;DHT22;21895;47.072;15.132;2023-09-18T05:09:40;14.10;99.90
20929;DHT22;21895;47.072;15.132;2023-09-18T05:12:09;14.20;99.90
20929;DHT22;21895;47.072;15.132;2023-09-18T05:14:40;14.20;99.90
20929;DHT22;21895;47.072;15.132;2023-09-18T05:17:09;14.30;99.90
20929;DHT22;21895;47.072;15.132;2023-09-18T05:19:39;14.40;99.90
20929;DHT22;21895;47.072;15.132;2023-09-18T05:22:07;14.60;99.90
20929;DHT22;21895;47.072;15.132;2023-09-18T05:24:39;14.60;99.90
20929;DHT22;21895;47.072;15.132;2023-09-18T05:27:06;14.50;99.90
20929;DHT22;21895;47.072;15.132;2023-09-18T05:29:34;14.60;99.90
20929;DHT22;21895;47.072;15.132;2023-09-18T05:32:02;14.60;99.90
20929;DHT22;21895;47.072;15.132;2023-09-18T05:34:30;14.60;99.90
20929;DHT22;21895;47.072;15.132;2023-09-18T05:36:57;14.60;99.90
20929;DHT22;21895;47.072;15.132;2023-09-18T05:39:24;14.70;99.90
20929;DHT22;21895;47.072;15.132;2023-09-18T05:41:50;14.70;99.90
20929;DHT22;21895;47.072;15.132;2023-09-18T05:44:17;14.80;99.90
20929;DHT22;21895;47.072;15.132;2023-09-18T05:46:43;14.90;99.90
20929;DHT22;21895;47.072;15.132;2023-09-18T05:49:10;15.00;99.90
20929;DHT22;21895;47.072;15.132;2023-09-18T05:51:37;15.20;99.90
20929;DHT22;21895;47.072;15.132;2023-09-18T05:54:04;15.40;99.90
20929;DHT22;21895;47.072;15.132;2023-09-18T05:56:31;15.60;99.90
20929;DHT22;21895;47.072;15.132;2023-09-18T05:58:57;15.80;99.90
20929;DHT22;21895;47.072;15.132;2023-09-18T06:01:24;16.00;99.90
20929;DHT22;21895;47.072;15.132;2023-09-18T06:03:53;16.10;99.90
20929;DHT22;21895;47.072;15.132;2023-09-18T06:06:19;16.20;99.90
20929;DHT22;21895;47.072;15.132;2023-09-18T06:08:46;16.30;99.90
20929;DHT22;21895;47.072;15.132;2023-09-18T06:11:13;16.50;99.90
20929;DHT22;21895;47.072;15.132;2023-09-18T06:13:39;16.60;99.90
20929;DHT22;21895;47.072;15.132;2023-09-18T06:16:06;16.60;99.90
20929;DHT22;21895;47.072;15.132;2023-09-18T06:18:34;16.70;99.90
20929;DHT22;21895;47.072;15.132;2023-09-18T06:21:01;16.90;99.90
20929;DHT22;21895;47.072;15.132;2023-09-18T06:23:28;17.10;99.90
20929;DHT22;21895;47.072;15.132;2023-09-18T06:25:55;17.20;99.90
20929;DHT22;21895;47.072;15.132;2023-09-18T06:28:22;17.50;99.90
20929;DHT22;21895;47.072;15.132;2023-09-18T06:30:49;17.60;99.90
20929;DHT22;21895;47.072;15.132;2023-09-18T06:33:15;17.90;99.90
20929;DHT22;21895;47.072;15.132;2023-09-18T06:35:42;18.00;99.90
20929;DHT22;21895;47.072;15.132;2023-09-18T06:38:09;18.10;99.90
20929;DHT22;21895;47.072;15.132;2023-09-18T06:40:38;18.20;99.90
20929;DHT22;21895;47.072;15.132;2023-09-18T06:43:04;18.40;99.90
20929;DHT22;21895;47.072;15.132;2023-09-18T06:45:31;18.60;99.90
20929;DHT22;21895;47.072;15.132;2023-09-18T06:47:59;18.70;99.90
20929;DHT22;21895;47.072;15.132;2023-09-18T06:50:29;18.80;99.90
20929;DHT22;21895;47.072;15.132;2023-09-18T06:52:56;18.90;99.90
20929;DHT22;21895;47.072;15.132;2023-09-18T06:55:23;19.10;99.90
20929;DHT22;21895;47.072;15.132;2023-09-18T06:57:49;19.20;99.90
20929;DHT22;21895;47.072;15.132;2023-09-18T07:00:18;19.40;99.90
20929;DHT22;21895;47.072;15.132;2023-09-18T07:02:47;19.50;99.90
20929;DHT22;21895;47.072;15.132;2023-09-18T07:05:14;19.50;99.90
20929;DHT22;21895;47.072;15.132;2023-09-18T07:07:41;19.50;99.90
20929;DHT22;21895;47.072;15.132;2023-09-18T07:10:07;19.60;99.90
20929;DHT22;21895;47.072;15.132;2023-09-18T07:12:34;19.70;99.90
20929;DHT22;21895;47.072;15.132;2023-09-18T07:15:03;19.80;99.90
20929;DHT22;21895;47.072;15.132;2023-09-18T07:17:30;20.00;99.90
20929;DHT22;21895;47.072;15.132;2023-09-18T07:19:57;20.10;99.90
20929;DHT22;21895;47.072;15.132;2023-09-18T07:22:25;20.20;99.90
20929;DHT22;21895;47.072;15.132;2023-09-18T07:24:53;20.30;99.90
20929;DHT22;21895;47.072;15.132;2023-09-18T07:27:19;20.50;99.90
20929;DHT22;21895;47.072;15.132;2023-09-18T07:29:46;20.60;99.90
20929;DHT22;21895;47.072;15.132;2023-09-18T07:32:12;20.50;99.90
20929;DHT22;21895;47.072;15.132;2023-09-18T07:34:55;20.60;99.90
20929;DHT22;21895;47.072;15.132;2023-09-18T07:37:22;20.70;99.90
20929;DHT22;21895;47.072;15.132;2023-09-18T07:39:49;20.90;99.90
20929;DHT22;21895;47.072;15.132;2023-09-18T07:42:15;21.00;99.90
20929;DHT22;21895;47.072;15.132;2023-09-18T07:44:42;21.20;99.90
20929;DHT22;21895;47.072;15.132;2023-09-18T07:47:09;21.40;99.90
20929;DHT22;21895;47.072;15.132;2023-09-18T07:49:35;21.60;99.90
20929;DHT22;21895;47.072;15.132;2023-09-18T07:52:02;21.90;99.90
20929;DHT22;21895;47.072;15.132;2023-09-18T07:54:29;22.10;99.90
20929;DHT22;21895;47.072;15.132;2023-09-18T07:56:55;22.30;99.90
20929;DHT22;21895;47.072;15.132;2023-09-18T07:59:22;22.40;99.90
20929;DHT22;21895;47.072;15.132;2023-09-18T08:01:51;22.40;99.90
20929;DHT22;21895;47.072;15.132;2023-09-18T08:04:18;22.60;99.90
20929;DHT22;21895;47.072;15.132;2023-09-18T08:06:45;22.80;99.90
20929;DHT22;21895;47.072;15.132;2023-09-18T08:09:12;22.90;99.90
20929;DHT22;21895;47.072;15.132;2023-09-18T08:11:41;23.20;99.90
20929;DHT22;21895;47.072;15.132;2023-09-18T08:14:09;23.30;99.90
20929;DHT22;21895;47.072;15.132;2023-09-18T08:16:38;23.40;99.90
20929;DHT22;21895;47.072;15.132;2023-09-18T08:19:05;23.60;99.90
20929;DHT22;21895;47.072;15.132;2023-09-18T08:21:33;23.70;99.90
20929;DHT22;21895;47.072;15.132;2023-09-18T08:23:59;23.60;99.90
20929;DHT22;21895;47.072;15.132;2023-09-18T08:26:26;23.50;99.90
20929;DHT22;21895;47.072;15.132;2023-09-18T08:28:53;23.50;99.90
20929;DHT22;21895;47.072;15.132;2023-09-18T08:31:21;23.60;99.90
20929;DHT22;21895;47.072;15.132;2023-09-18T08:33:47;23.50;99.90
20929;DHT22;21895;47.072;15.132;2023-09-18T08:36:14;23.50;99.90
20929;DHT22;21895;47.072;15.132;2023-09-18T08:38:41;23.50;99.90
20929;DHT22;21895;47.072;15.132;2023-09-18T08:41:11;23.40;99.90
20929;DHT22;21895;47.072;15.132;2023-09-18T08:43:43;23.40;99.90
20929;DHT22;21895;47.072;15.132;2023-09-18T08:46:10;23.50;99.90
20929;DHT22;21895;47.072;15.132;2023-09-18T08:48:37;23.70;99.90
20929;DHT22;21895;47.072;15.132;2023-09-18T08:51:06;23.90;99.90
20929;DHT22;21895;47.072;15.132;2023-09-18T08:53:35;24.10;99.90
20929;DHT22;21895;47.072;15.132;2023-09-18T08:56:04;24.10;99.90
20929;DHT22;21895;47.072;15.132;2023-09-18T08:58:33;24.00;99.90
20929;DHT22;21895;47.072;15.132;2023-09-18T09:01:03;24.10;99.90
20929;DHT22;21895;47.072;15.132;2023-09-18T09:03:32;24.20;99.90
20929;DHT22;21895;47.072;15.132;2023-09-18T09:06:00;24.40;99.90
20929;DHT22;21895;47.072;15.132;2023-09-18T09:08:28;24.40;99.90
20929;DHT22;21895;47.072;15.132;2023-09-18T09:10:58;24.40;99.90
20929;DHT22;21895;47.072;15.132;2023-09-18T09:13:25;24.40;99.90
20929;DHT22;21895;47.072;15.132;2023-09-18T09:16:10;24.70;99.90
20929;DHT22;21895;47.072;15.132;2023-09-18T09:18:48;24.60;99.90
20929;DHT22;21895;47.072;15.132;2023-09-18T09:21:15;24.80;99.90
20929;DHT22;21895;47.072;15.132;2023-09-18T09:23:52;24.90;99.90
20929;DHT22;21895;47.072;15.132;2023-09-18T09:26:21;25.00;99.90
20929;DHT22;21895;47.072;15.132;2023-09-18T09:28:50;25.10;99.90
20929;DHT22;21895;47.072;15.132;2023-09-18T09:31:30;25.30;99.90
20929;DHT22;21895;47.072;15.132;2023-09-18T09:33:57;25.20;99.90
20929;DHT22;21895;47.072;15.132;2023-09-18T09:36:24;25.20;99.90
20929;DHT22;21895;47.072;15.132;2023-09-18T09:38:57;25.20;99.90
20929;DHT22;21895;47.072;15.132;2023-09-18T09:41:25;25.30;99.90
20929;DHT22;21895;47.072;15.132;2023-09-18T09:43:53;25.40;99.90
20929;DHT22;21895;47.072;15.132;2023-09-18T09:46:22;25.40;99.90
20929;DHT22;21895;47.072;15.132;2023-09-18T09:49:04;25.40;99.90
20929;DHT22;21895;47.072;15.132;2023-09-18T09:51:33;25.40;99.90
20929;DHT22;21895;47.072;15.132;2023-09-18T09:54:00;25.40;99.90
20929;DHT22;21895;47.072;15.132;2023-09-18T09:56:47;25.50;99.90
20929;DHT22;21895;47.072;15.132;2023-09-18T09:59:17;25.40;99.90
20929;DHT22;21895;47.072;15.132;2023-09-18T10:01:48;25.30;99.90
20929;DHT22;21895;47.072;15.132;2023-09-18T10:04:17;25.60;99.90
20929;DHT22;21895;47.072;15.132;2023-09-18T10:06:54;25.60;99.90
20929;DHT22;21895;47.072;15.132;2023-09-18T10:09:26;25.40;99.90
20929;DHT22;21895;47.072;15.132;2023-09-18T10:11:56;25.30;99.90
20929;DHT22;21895;47.072;15.132;2023-09-18T10:14:32;25.30;99.90
20929;DHT22;21895;47.072;15.132;2023-09-18T10:17:26;25.40;99.90
20929;DHT22;21895;47.072;15.132;2023-09-18T10:20:08;25.40;99.90
20929;DHT22;21895;47.072;15.132;2023-09-18T10:22:48;25.40;99.90
20929;DHT22;21895;47.072;15.132;2023-09-18T10:25:24;25.40;99.90
20929;DHT22;21895;47.072;15.132;2023-09-18T10:27:55;25.10;99.90
20929;DHT22;21895;47.072;15.132;2023-09-18T10:30:32;24.90;99.90
20929;DHT22;21895;47.072;15.132;2023-09-18T10:33:00;24.80;99.90
20929;DHT22;21895;47.072;15.132;2023-09-18T10:35:28;24.70;99.90
20929;DHT22;21895;47.072;15.132;2023-09-18T10:37:56;24.60;99.90
20929;DHT22;21895;47.072;15.132;2023-09-18T10:40:25;24.70;99.90
20929;DHT22;21895;47.072;15.132;2023-09-18T10:42:54;24.60;99.90
20929;DHT22;21895;47.072;15.132;2023-09-18T10:45:24;24.60;99.90
20929;DHT22;21895;47.072;15.132;2023-09-18T10:47:52;24.70;99.90
20929;DHT22;21895;47.072;15.132;2023-09-18T10:50:25;24.80;99.90
20929;DHT22;21895;47.072;15.132;2023-09-18T10:52:53;24.80;99.90
20929;DHT22;21895;47.072;15.132;2023-09-18T10:55:21;24.80;99.90
20929;DHT22;21895;47.072;15.132;2023-09-18T10:57:59;24.90;99.90
20929;DHT22;21895;47.072;15.132;2023-09-18T11:00:28;24.90;99.90
20929;DHT22;21895;47.072;15.132;2023-09-18T11:03:16;25.00;99.90
20929;DHT22;21895;47.072;15.132;2023-09-18T11:05:45;25.10;99.90
20929;DHT22;21895;47.072;15.132;2023-09-18T11:08:43;25.30;99.90
20929;DHT22;21895;47.072;15.132;2023-09-18T11:11:12;25.20;99.90
20929;DHT22;21895;47.072;15.132;2023-09-18T11:13:47;25.40;99.90
20929;DHT22;21895;47.072;15.132;2023-09-18T11:17:33;25.20;99.90
20929;DHT22;21895;47.072;15.132;2023-09-18T11:20:24;25.40;99.90
20929;DHT22;21895;47.072;15.132;2023-09-18T11:23:16;25.50;99.90
20929;DHT22;21895;47.072;15.132;2023-09-18T11:25:44;25.40;99.90
20929;DHT22;21895;47.072;15.132;2023-09-18T11:28:16;25.10;99.90
20929;DHT22;21895;47.072;15.132;2023-09-18T11:30:51;25.00;99.90
20929;DHT22;21895;47.072;15.132;2023-09-18T11:33:37;24.80;99.90
20929;DHT22;21895;47.072;15.132;2023-09-18T11:36:11;24.60;99.90
20929;DHT22;21895;47.072;15.132;2023-09-18T11:40:36;24.60;99.90
20929;DHT22;21895;47.072;15.132;2023-09-18T11:43:26;24.90;99.90
20929;DHT22;21895;47.072;15.132;2023-09-18T11:45:59;25.20;99.90
20929;DHT22;21895;47.072;15.132;2023-09-18T11:48:28;25.40;99.90
20929;DHT22;21895;47.072;15.132;2023-09-18T11:50:59;25.70;99.90
20929;DHT22;21895;47.072;15.132;2023-09-18T11:53:29;25.80;99.90
20929;DHT22;21895;47.072;15.132;2023-09-18T11:56:03;25.90;99.90
20929;DHT22;21895;47.072;15.132;2023-09-18T11:58:30;25.90;99.90
20929;DHT22;21895;47.072;15.132;2023-09-18T12:00:56;25.90;99.90
20929;DHT22;21895;47.072;15.132;2023-09-18T12:03:23;25.90;99.90
20929;DHT22;21895;47.072;15.132;2023-09-18T12:05:56;25.80;99.90
20929;DHT22;21895;47.072;15.132;2023-09-18T12:08:25;25.70;99.90
20929;DHT22;21895;47.072;15.132;2023-09-18T12:10:55;25.60;99.90
20929;DHT22;21895;47.072;15.132;2023-09-18T12:13:25;25.60;99.90
20929;DHT22;21895;47.072;15.132;2023-09-18T12:16:00;25.60;99.90
20929;DHT22;21895;47.072;15.132;2023-09-18T12:18:27;25.60;99.90
20929;DHT22;21895;47.072;15.132;2023-09-18T12:20:58;25.70;99.90
20929;DHT22;21895;47.072;15.132;2023-09-18T12:23:25;25.60;99.90
20929;DHT22;21895;47.072;15.132;2023-09-18T12:26:01;25.40;99.90
20929;DHT22;21895;47.072;15.132;2023-09-18T12:28:29;25.30;99.90
20929;DHT22;21895;47.072;15.132;2023-09-18T12:30:56;25.30;99.90
20929;DHT22;21895;47.072;15.132;2023-09-18T12:33:25;25.30;99.90
20929;DHT22;21895;47.072;15.132;2023-09-18T12:35:53;25.30;99.90
20929;DHT22;21895;47.072;15.132;2023-09-18T12:38:19;25.30;99.90
20929;DHT22;21895;47.072;15.132;2023-09-18T12:40:50;25.40;99.90
20929;DHT22;21895;47.072;15.132;2023-09-18T12:43:18;25.40;99.90
20929;DHT22;21895;47.072;15.132;2023-09-18T12:45:49;25.50;99.90
20929;DHT22;21895;47.072;15.132;2023-09-18T12:48:17;25.50;99.90
20929;DHT22;21895;47.072;15.132;2023-09-18T12:50:44;25.30;99.90
20929;DHT22;21895;47.072;15.132;2023-09-18T12:53:14;25.30;99.90
20929;DHT22;21895;47.072;15.132;2023-09-18T12:55:43;25.40;99.90
20929;DHT22;21895;47.072;15.132;2023-09-18T12:58:13;25.40;99.90
20929;DHT22;21895;47.072;15.132;2023-09-18T13:00:48;25.40;99.90
20929;DHT22;21895;47.072;15.132;2023-09-18T13:03:15;25.40;99.90
20929;DHT22;21895;47.072;15.132;2023-09-18T13:05:42;25.50;99.90
20929;DHT22;21895;47.072;15.132;2023-09-18T13:08:09;25.80;99.90
20929;DHT22;21895;47.072;15.132;2023-09-18T13:10:56;25.70;99.90
20929;DHT22;21895;47.072;15.132;2023-09-18T13:13:23;25.70;99.90
20929;DHT22;21895;47.072;15.132;2023-09-18T13:15:51;25.70;99.90
20929;DHT22;21895;47.072;15.132;2023-09-18T13:18:22;25.50;99.90
20929;DHT22;21895;47.072;15.132;2023-09-18T13:20:50;25.50;99.90
20929;DHT22;21895;47.072;15.132;2023-09-18T13:23:18;25.40;99.90
20929;DHT22;21895;47.072;15.132;2023-09-18T13:25:47;25.40;99.90
20929;DHT22;21895;47.072;15.132;2023-09-18T13:28:14;25.70;99.90
20929;DHT22;21895;47.072;15.132;2023-09-18T13:30:42;25.80;99.90
20929;DHT22;21895;47.072;15.132;2023-09-18T13:33:14;26.00;99.90
20929;DHT22;21895;47.072;15.132;2023-09-18T13:35:44;26.10;99.90
20929;DHT22;21895;47.072;15.132;2023-09-18T13:38:11;26.00;99.90
20929;DHT22;21895;47.072;15.132;2023-09-18T13:40:42;26.10;99.90
20929;DHT22;21895;47.072;15.132;2023-09-18T13:43:11;26.20;99.90
20929;DHT22;21895;47.072;15.132;2023-09-18T13:45:38;26.10;99.90
20929;DHT22;21895;47.072;15.132;2023-09-18T13:48:06;25.80;99.90
20929;DHT22;21895;47.072;15.132;2023-09-18T13:50:34;25.60;99.90
20929;DHT22;21895;47.072;15.132;2023-09-18T13:53:02;25.40;99.90
20929;DHT22;21895;47.072;15.132;2023-09-18T13:55:33;25.30;99.90
20929;DHT22;21895;47.072;15.132;2023-09-18T13:58:00;25.20;99.90
20929;DHT22;21895;47.072;15.132;2023-09-18T14:00:29;25.10;99.90
20929;DHT22;21895;47.072;15.132;2023-09-18T14:02:56;25.30;99.90
20929;DHT22;21895;47.072;15.132;2023-09-18T14:05:23;25.20;99.90
20929;DHT22;21895;47.072;15.132;2023-09-18T14:07:52;25.10;99.90
20929;DHT22;21895;47.072;15.132;2023-09-18T14:10:23;25.20;99.90
20929;DHT22;21895;47.072;15.132;2023-09-18T14:12:50;25.10;99.90
20929;DHT22;21895;47.072;15.132;2023-09-18T14:15:16;25.00;99.90
20929;DHT22;21895;47.072;15.132;2023-09-18T14:17:44;24.90;99.90
20929;DHT22;21895;47.072;15.132;2023-09-18T14:20:11;24.90;99.90
20929;DHT22;21895;47.072;15.132;2023-09-18T14:22:38;25.00;99.90
20929;DHT22;21895;47.072;15.132;2023-09-18T14:25:05;25.00;99.90
20929;DHT22;21895;47.072;15.132;2023-09-18T14:27:33;25.00;99.90
20929;DHT22;21895;47.072;15.132;2023-09-18T14:30:01;24.80;99.90
20929;DHT22;21895;47.072;15.132;2023-09-18T14:32:32;24.70;99.90
20929;DHT22;21895;47.072;15.132;2023-09-18T14:35:03;24.80;99.90
20929;DHT22;21895;47.072;15.132;2023-09-18T14:37:31;24.70;99.90
20929;DHT22;21895;47.072;15.132;2023-09-18T14:39:57;24.50;99.90
20929;DHT22;21895;47.072;15.132;2023-09-18T14:42:24;24.40;99.90
20929;DHT22;21895;47.072;15.132;2023-09-18T14:44:50;24.40;99.90
20929;DHT22;21895;47.072;15.132;2023-09-18T14:47:17;24.50;99.90
20929;DHT22;21895;47.072;15.132;2023-09-18T14:49:50;24.70;99.90
20929;DHT22;21895;47.072;15.132;2023-09-18T14:52:16;24.80;99.90
20929;DHT22;21895;47.072;15.132;2023-09-18T14:54:44;24.70;99.90
20929;DHT22;21895;47.072;15.132;2023-09-18T14:57:11;24.60;99.90
20929;DHT22;21895;47.072;15.132;2023-09-18T14:59:37;24.60;99.90
20929;DHT22;21895;47.072;15.132;2023-09-18T15:02:08;24.50;99.90
20929;DHT22;21895;47.072;15.132;2023-09-18T15:04:35;24.50;99.90
20929;DHT22;21895;47.072;15.132;2023-09-18T15:07:02;24.50;99.90
20929;DHT22;21895;47.072;15.132;2023-09-18T15:09:28;24.50;99.90
20929;DHT22;21895;47.072;15.132;2023-09-18T15:11:55;24.50;99.90
20929;DHT22;21895;47.072;15.132;2023-09-18T15:14:21;24.50;99.90
20929;DHT22;21895;47.072;15.132;2023-09-18T15:16:48;24.40;99.90
20929;DHT22;21895;47.072;15.132;2023-09-18T15:19:15;24.50;99.90
20929;DHT22;21895;47.072;15.132;2023-09-18T15:21:46;24.50;99.90
20929;DHT22;21895;47.072;15.132;2023-09-18T15:24:12;24.40;99.90
20929;DHT22;21895;47.072;15.132;2023-09-18T15:26:39;24.30;99.90
20929;DHT22;21895;47.072;15.132;2023-09-18T15:29:06;24.30;99.90